sensor_id;sensor_type;location;lat;lon;timestamp;temperature;humidity
9820;DHT22;4949;48.482;9.206;2023-07-16T00:01:31;23.50;89.10
9820;DHT22;4949;48.482;9.206;2023-07-16T00:06:32;23.50;88.60
9820;DHT22;4949;48.482;9.206;2023-07-16T00:11:33;23.40;88.40
9820;DHT22;4949;48.482;9.206;2023-07-16T00:16:33;23.10;90.30
9820;DHT22;4949;48.482;9.206;2023-07-16T00:21:34;22.90;88.70
9820;DHT22;4949;48.482;9.206;2023-07-16T00:26:35;22.90;89.70
9820;DHT22;4949;48.482;9.206;2023-07-16T00:31:38;22.80;88.30
9820;DHT22;4949;48.482;9.206;2023-07-16T00:36:39;22.80;88.30
9820;DHT22;4949;48.482;9.206;2023-07-16T00:41:39;22.60;88.80
9820;DHT22;4949;48.482;9.206;2023-07-16T00:46:40;22.60;89.70
9820;DHT22;4949;48.482;9.206;2023-07-16T00:51:42;22.70;90.00
9820;DHT22;4949;48.482;9.206;2023-07-16T00:56:45;22.60;88.70
9820;DHT22;4949;48.482;9.206;2023-07-16T01:01:48;22.50;88.50
9820;DHT22;4949;48.482;9.206;2023-07-16T01:06:56;22.40;85.10
9820;DHT22;4949;48.482;9.206;2023-07-16T01:12:00;22.20;82.20
9820;DHT22;4949;48.482;9.206;2023-07-16T01:17:05;21.90;81.70
9820;DHT22;4949;48.482;9.206;2023-07-16T01:27:34;21.70;81.90
9820;DHT22;4949;48.482;9.206;2023-07-16T01:32:46;21.60;80.90
9820;DHT22;4949;48.482;9.206;2023-07-16T01:37:49;21.50;79.00
9820;DHT22;4949;48.482;9.206;2023-07-16T01:42:53;21.50;78.80
9820;DHT22;4949;48.482;9.206;2023-07-16T01:48:21;21.40;80.70
9820;DHT22;4949;48.482;9.206;2023-07-16T01:53:30;21.20;80.80
9820;DHT22;4949;48.482;9.206;2023-07-16T01:58:31;21.20;84.00
9820;DHT22;4949;48.482;9.206;2023-07-16T02:03:32;21.10;83.00
9820;DHT22;4949;48.482;9.206;2023-07-16T02:08:35;21.10;82.30
9820;DHT22;4949;48.482;9.206;2023-07-16T02:13:36;21.10;83.30
9820;DHT22;4949;48.482;9.206;2023-07-16T02:18:39;21.10;84.60
9820;DHT22;4949;48.482;9.206;2023-07-16T02:23:40;21.10;84.00
9820;DHT22;4949;48.482;9.206;2023-07-16T02:28:43;21.10;83.20
9820;DHT22;4949;48.482;9.206;2023-07-16T02:33:46;21.00;85.00
9820;DHT22;4949;48.482;9.206;2023-07-16T02:38:46;21.00;84.80
9820;DHT22;4949;48.482;9.206;2023-07-16T02:44:04;21.00;84.90
9820;DHT22;4949;48.482;9.206;2023-07-16T02:49:05;20.90;85.60
9820;DHT22;4949;48.482;9.206;2023-07-16T02:54:08;20.80;86.10
9820;DHT22;4949;48.482;9.206;2023-07-16T02:59:09;20.80;84.80
9820;DHT22;4949;48.482;9.206;2023-07-16T03:04:10;20.60;85.30
9820;DHT22;4949;48.482;9.206;2023-07-16T03:09:13;20.60;85.00
9820;DHT22;4949;48.482;9.206;2023-07-16T03:14:16;20.60;85.00
9820;DHT22;4949;48.482;9.206;2023-07-16T03:19:19;20.60;85.70
9820;DHT22;4949;48.482;9.206;2023-07-16T03:24:19;20.60;85.70
9820;DHT22;4949;48.482;9.206;2023-07-16T03:29:23;20.60;86.40
9820;DHT22;4949;48.482;9.206;2023-07-16T03:34:26;20.60;84.70
9820;DHT22;4949;48.482;9.206;2023-07-16T03:39:29;20.40;84.40
9820;DHT22;4949;48.482;9.206;2023-07-16T03:44:36;20.40;83.90
9820;DHT22;4949;48.482;9.206;2023-07-16T03:49:37;20.40;82.50
9820;DHT22;4949;48.482;9.206;2023-07-16T03:54:38;20.40;82.80
9820;DHT22;4949;48.482;9.206;2023-07-16T03:59:41;20.30;83.10
9820;DHT22;4949;48.482;9.206;2023-07-16T04:04:42;20.20;83.50
9820;DHT22;4949;48.482;9.206;2023-07-16T04:09:43;20.10;83.40
9820;DHT22;4949;48.482;9.206;2023-07-16T04:14:44;20.00;83.60
9820;DHT22;4949;48.482;9.206;2023-07-16T04:19:44;20.00;83.40
9820;DHT22;4949;48.482;9.206;2023-07-16T04:24:45;20.00;84.10
9820;DHT22;4949;48.482;9.206;2023-07-16T04:29:53;20.00;84.10
9820;DHT22;4949;48.482;9.206;2023-07-16T04:34:54;20.00;82.00
9820;DHT22;4949;48.482;9.206;2023-07-16T04:39:57;19.90;83.20
9820;DHT22;4949;48.482;9.206;2023-07-16T04:44:58;19.80;82.90
9820;DHT22;4949;48.482;9.206;2023-07-16T04:49:59;19.80;83.40
9820;DHT22;4949;48.482;9.206;2023-07-16T04:55:04;19.80;82.80
9820;DHT22;4949;48.482;9.206;2023-07-16T05:00:06;19.80;82.90
9820;DHT22;4949;48.482;9.206;2023-07-16T05:05:08;19.80;83.40
9820;DHT22;4949;48.482;9.206;2023-07-16T05:10:11;19.70;82.90
9820;DHT22;4949;48.482;9.206;2023-07-16T05:15:12;19.70;82.10
9820;DHT22;4949;48.482;9.206;2023-07-16T05:20:13;19.70;81.90
9820;DHT22;4949;48.482;9.206;2023-07-16T05:25:16;19.70;81.40
9820;DHT22;4949;48.482;9.206;2023-07-16T05:30:17;19.70;81.40
9820;DHT22;4949;48.482;9.206;2023-07-16T05:35:20;19.70;81.20
9820;DHT22;4949;48.482;9.206;2023-07-16T05:40:21;19.70;81.00
9820;DHT22;4949;48.482;9.206;2023-07-16T05:45:21;19.60;80.80
9820;DHT22;4949;48.482;9.206;2023-07-16T05:50:23;19.60;81.10
9820;DHT22;4949;48.482;9.206;2023-07-16T05:55:24;19.70;80.00
9820;DHT22;4949;48.482;9.206;2023-07-16T06:00:25;19.70;80.80
9820;DHT22;4949;48.482;9.206;2023-07-16T06:05:28;19.70;80.90
9820;DHT22;4949;48.482;9.206;2023-07-16T06:10:36;19.70;80.60
9820;DHT22;4949;48.482;9.206;2023-07-16T06:15:37;19.80;80.20
9820;DHT22;4949;48.482;9.206;2023-07-16T06:20:37;19.80;79.10
9820;DHT22;4949;48.482;9.206;2023-07-16T06:25:39;19.70;79.80
9820;DHT22;4949;48.482;9.206;2023-07-16T06:30:44;19.80;79.40
9820;DHT22;4949;48.482;9.206;2023-07-16T06:35:46;19.80;79.70
9820;DHT22;4949;48.482;9.206;2023-07-16T06:40:51;19.80;79.00
9820;DHT22;4949;48.482;9.206;2023-07-16T06:45:52;19.90;79.80
9820;DHT22;4949;48.482;9.206;2023-07-16T06:50:55;19.90;80.60
9820;DHT22;4949;48.482;9.206;2023-07-16T06:55:56;20.00;80.30
9820;DHT22;4949;48.482;9.206;2023-07-16T07:00:57;20.00;80.10
9820;DHT22;4949;48.482;9.206;2023-07-16T07:06:03;20.00;80.60
9820;DHT22;4949;48.482;9.206;2023-07-16T07:11:04;20.00;78.80
9820;DHT22;4949;48.482;9.206;2023-07-16T07:16:07;20.10;78.60
9820;DHT22;4949;48.482;9.206;2023-07-16T07:21:11;20.10;78.60
9820;DHT22;4949;48.482;9.206;2023-07-16T07:26:11;20.20;77.10
9820;DHT22;4949;48.482;9.206;2023-07-16T07:31:15;20.30;78.00
9820;DHT22;4949;48.482;9.206;2023-07-16T07:36:17;20.40;77.00
9820;DHT22;4949;48.482;9.206;2023-07-16T07:41:20;20.50;77.20
9820;DHT22;4949;48.482;9.206;2023-07-16T07:46:21;20.50;76.60
9820;DHT22;4949;48.482;9.206;2023-07-16T07:51:22;20.50;77.30
9820;DHT22;4949;48.482;9.206;2023-07-16T07:56:25;20.50;74.30
9820;DHT22;4949;48.482;9.206;2023-07-16T08:01:28;20.50;72.90
9820;DHT22;4949;48.482;9.206;2023-07-16T08:06:30;20.60;70.50
9820;DHT22;4949;48.482;9.206;2023-07-16T08:11:30;20.60;69.60
9820;DHT22;4949;48.482;9.206;2023-07-16T08:16:34;20.80;69.80
9820;DHT22;4949;48.482;9.206;2023-07-16T08:21:35;20.90;70.50
9820;DHT22;4949;48.482;9.206;2023-07-16T08:26:36;20.80;69.80
9820;DHT22;4949;48.482;9.206;2023-07-16T08:31:37;20.90;70.50
9820;DHT22;4949;48.482;9.206;2023-07-16T08:36:37;21.20;70.80
9820;DHT22;4949;48.482;9.206;2023-07-16T08:41:39;21.70;68.60
9820;DHT22;4949;48.482;9.206;2023-07-16T08:46:40;22.00;66.90
9820;DHT22;4949;48.482;9.206;2023-07-16T08:51:41;22.00;64.70
9820;DHT22;4949;48.482;9.206;2023-07-16T08:56:43;22.00;63.40
9820;DHT22;4949;48.482;9.206;2023-07-16T09:01:47;22.10;64.50
9820;DHT22;4949;48.482;9.206;2023-07-16T09:06:50;22.30;63.80
9820;DHT22;4949;48.482;9.206;2023-07-16T09:11:51;22.40;62.20
9820;DHT22;4949;48.482;9.206;2023-07-16T09:16:52;22.60;61.70
9820;DHT22;4949;48.482;9.206;2023-07-16T09:21:53;22.70;59.20
9820;DHT22;4949;48.482;9.206;2023-07-16T09:26:55;22.60;60.60
9820;DHT22;4949;48.482;9.206;2023-07-16T09:31:56;22.70;59.60
9820;DHT22;4949;48.482;9.206;2023-07-16T09:37:00;22.80;59.80
9820;DHT22;4949;48.482;9.206;2023-07-16T09:42:05;22.90;59.80
9820;DHT22;4949;48.482;9.206;2023-07-16T09:47:06;22.90;59.60
9820;DHT22;4949;48.482;9.206;2023-07-16T09:52:07;22.90;58.40
9820;DHT22;4949;48.482;9.206;2023-07-16T09:57:11;22.80;58.10
9820;DHT22;4949;48.482;9.206;2023-07-16T10:02:12;23.00;57.30
9820;DHT22;4949;48.482;9.206;2023-07-16T10:07:24;23.20;56.80
9820;DHT22;4949;48.482;9.206;2023-07-16T10:12:27;23.40;58.60
9820;DHT22;4949;48.482;9.206;2023-07-16T10:17:31;23.30;59.00
9820;DHT22;4949;48.482;9.206;2023-07-16T10:22:43;23.80;58.50
9820;DHT22;4949;48.482;9.206;2023-07-16T10:27:51;24.10;57.60
9820;DHT22;4949;48.482;9.206;2023-07-16T10:32:53;24.50;57.20
9820;DHT22;4949;48.482;9.206;2023-07-16T10:37:54;24.50;53.70
9820;DHT22;4949;48.482;9.206;2023-07-16T10:42:57;24.50;55.30
9820;DHT22;4949;48.482;9.206;2023-07-16T10:47:58;24.60;56.40
9820;DHT22;4949;48.482;9.206;2023-07-16T10:52:59;24.60;56.00
9820;DHT22;4949;48.482;9.206;2023-07-16T10:58:04;24.60;55.10
9820;DHT22;4949;48.482;9.206;2023-07-16T11:03:06;25.00;55.30
9820;DHT22;4949;48.482;9.206;2023-07-16T11:08:07;25.20;54.30
9820;DHT22;4949;48.482;9.206;2023-07-16T11:13:08;24.90;54.20
9820;DHT22;4949;48.482;9.206;2023-07-16T11:18:09;25.30;54.00
9820;DHT22;4949;48.482;9.206;2023-07-16T11:23:13;25.70;53.10
9820;DHT22;4949;48.482;9.206;2023-07-16T11:28:15;25.60;52.80
9820;DHT22;4949;48.482;9.206;2023-07-16T11:33:16;25.80;54.10
9820;DHT22;4949;48.482;9.206;2023-07-16T11:38:19;26.00;52.50
9820;DHT22;4949;48.482;9.206;2023-07-16T11:43:19;26.10;51.70
9820;DHT22;4949;48.482;9.206;2023-07-16T11:48:20;26.30;52.00
9820;DHT22;4949;48.482;9.206;2023-07-16T18:29:28;27.60;48.70
9820;DHT22;4949;48.482;9.206;2023-07-16T18:34:30;27.40;50.10
9820;DHT22;4949;48.482;9.206;2023-07-16T18:39:33;27.30;50.10
9820;DHT22;4949;48.482;9.206;2023-07-16T18:44:36;27.10;50.20
9820;DHT22;4949;48.482;9.206;2023-07-16T18:49:39;27.00;50.00
9820;DHT22;4949;48.482;9.206;2023-07-16T18:54:39;27.00;49.20
9820;DHT22;4949;48.482;9.206;2023-07-16T18:59:43;26.80;49.60
9820;DHT22;4949;48.482;9.206;2023-07-16T19:04:44;26.50;49.50
9820;DHT22;4949;48.482;9.206;2023-07-16T19:09:44;26.40;49.50
9820;DHT22;4949;48.482;9.206;2023-07-16T19:14:47;26.30;49.40
9820;DHT22;4949;48.482;9.206;2023-07-16T19:19:51;26.20;49.50
9820;DHT22;4949;48.482;9.206;2023-07-16T19:24:52;26.00;50.00
9820;DHT22;4949;48.482;9.206;2023-07-16T19:29:53;26.00;50.20
9820;DHT22;4949;48.482;9.206;2023-07-16T19:34:53;26.00;50.60
9820;DHT22;4949;48.482;9.206;2023-07-16T19:40:00;26.20;50.20
9820;DHT22;4949;48.482;9.206;2023-07-16T19:45:06;26.30;50.00
9820;DHT22;4949;48.482;9.206;2023-07-16T19:50:10;26.20;49.90
9820;DHT22;4949;48.482;9.206;2023-07-16T19:55:10;26.10;49.40
9820;DHT22;4949;48.482;9.206;2023-07-16T20:00:11;26.20;48.70
9820;DHT22;4949;48.482;9.206;2023-07-16T20:05:12;26.10;48.70
9820;DHT22;4949;48.482;9.206;2023-07-16T20:10:13;26.20;48.50
9820;DHT22;4949;48.482;9.206;2023-07-16T20:15:14;26.10;48.50
9820;DHT22;4949;48.482;9.206;2023-07-16T20:20:15;25.80;49.20
9820;DHT22;4949;48.482;9.206;2023-07-16T20:25:18;25.70;48.70
9820;DHT22;4949;48.482;9.206;2023-07-16T20:30:19;25.50;49.40
9820;DHT22;4949;48.482;9.206;2023-07-16T20:35:20;25.40;49.10
9820;DHT22;4949;48.482;9.206;2023-07-16T20:40:21;25.30;49.60
9820;DHT22;4949;48.482;9.206;2023-07-16T20:45:26;25.20;49.70
9820;DHT22;4949;48.482;9.206;2023-07-16T20:50:30;25.30;49.80
9820;DHT22;4949;48.482;9.206;2023-07-16T20:55:33;25.30;50.20
9820;DHT22;4949;48.482;9.206;2023-07-16T21:00:34;25.30;50.50
9820;DHT22;4949;48.482;9.206;2023-07-16T21:05:36;25.20;50.50
9820;DHT22;4949;48.482;9.206;2023-07-16T21:10:39;25.00;50.80
9820;DHT22;4949;48.482;9.206;2023-07-16T21:15:39;24.70;53.50
9820;DHT22;4949;48.482;9.206;2023-07-16T21:20:40;24.40;54.30
9820;DHT22;4949;48.482;9.206;2023-07-16T21:25:41;24.20;55.00
9820;DHT22;4949;48.482;9.206;2023-07-16T21:30:47;24.20;55.60
9820;DHT22;4949;48.482;9.206;2023-07-16T21:35:48;24.10;55.70
9820;DHT22;4949;48.482;9.206;2023-07-16T21:40:52;24.00;56.00
9820;DHT22;4949;48.482;9.206;2023-07-16T21:45:53;24.00;55.70
9820;DHT22;4949;48.482;9.206;2023-07-16T21:50:54;23.90;56.30
9820;DHT22;4949;48.482;9.206;2023-07-16T21:55:55;23.80;57.40
9820;DHT22;4949;48.482;9.206;2023-07-16T22:00:56;23.70;58.00
9820;DHT22;4949;48.482;9.206;2023-07-16T22:05:57;23.60;58.40
9820;DHT22;4949;48.482;9.206;2023-07-16T22:10:57;23.60;59.30
9820;DHT22;4949;48.482;9.206;2023-07-16T22:16:01;23.50;59.50
9820;DHT22;4949;48.482;9.206;2023-07-16T22:21:07;23.40;59.70
9820;DHT22;4949;48.482;9.206;2023-07-16T22:26:09;23.30;60.50
9820;DHT22;4949;48.482;9.206;2023-07-16T22:31:10;23.30;60.60
9820;DHT22;4949;48.482;9.206;2023-07-16T22:36:11;23.20;59.90
9820;DHT22;4949;48.482;9.206;2023-07-16T22:41:12;23.10;60.10
9820;DHT22;4949;48.482;9.206;2023-07-16T22:46:13;23.00;59.50
9820;DHT22;4949;48.482;9.206;2023-07-16T22:51:16;23.00;61.40
9820;DHT22;4949;48.482;9.206;2023-07-16T22:56:19;23.00;61.30
9820;DHT22;4949;48.482;9.206;2023-07-16T23:01:22;22.90;62.50
9820;DHT22;4949;48.482;9.206;2023-07-16T23:06:25;22.80;62.50
9820;DHT22;4949;48.482;9.206;2023-07-16T23:11:28;22.70;63.40
9820;DHT22;4949;48.482;9.206;2023-07-16T23:16:29;22.50;63.00
9820;DHT22;4949;48.482;9.206;2023-07-16T23:21:30;22.40;63.30
9820;DHT22;4949;48.482;9.206;2023-07-16T23:26:31;22.30;64.40
9820;DHT22;4949;48.482;9.206;2023-07-16T23:31:34;22.20;64.50
9820;DHT22;4949;48.482;9.206;2023-07-16T23:36:35;22.10;66.00
9820;DHT22;4949;48.482;9.206;2023-07-16T23:41:38;21.90;65.30
9820;DHT22;4949;48.482;9.206;2023-07-16T23:46:38;21.90;66.00
9820;DHT22;4949;48.482;9.206;2023-07-16T23:51:42;21.80;66.00
9820;DHT22;4949;48.482;9.206;2023-07-16T23:56:42;21.80;66.60
